sensor_id;sensor_type;location;lat;lon;timestamp;P1;durP1;ratioP1;P2;durP2;ratioP2
11531;SDS011;5822;51.000;5.874;2023-03-16T00:02:00;18.50;;;17.40;;
11531;SDS011;5822;51.000;5.874;2023-03-16T00:04:25;18.30;;;17.20;;
11531;SDS011;5822;51.000;5.874;2023-03-16T00:06:51;18.40;;;17.30;;
11531;SDS011;5822;51.000;5.874;2023-03-16T00:09:16;18.23;;;17.13;;
11531;SDS011;5822;51.000;5.874;2023-03-16T00:11:42;18.27;;;17.17;;
11531;SDS011;5822;51.000;5.874;2023-03-16T00:14:08;18.50;;;17.40;;
11531;SDS011;5822;51.000;5.874;2023-03-16T00:16:33;18.10;;;17.00;;
11531;SDS011;5822;51.000;5.874;2023-03-16T00:19:02;18.80;;;17.70;;
11531;SDS011;5822;51.000;5.874;2023-03-16T00:21:27;19.35;;;18.15;;
11531;SDS011;5822;51.000;5.874;2023-03-16T00:23:56;18.30;;;17.20;;
11531;SDS011;5822;51.000;5.874;2023-03-16T00:26:24;18.55;;;17.45;;
11531;SDS011;5822;51.000;5.874;2023-03-16T00:28:50;18.38;;;17.27;;
11531;SDS011;5822;51.000;5.874;2023-03-16T00:31:18;18.40;;;17.30;;
11531;SDS011;5822;51.000;5.874;2023-03-16T00:33:44;17.77;;;16.77;;
11531;SDS011;5822;51.000;5.874;2023-03-16T00:36:10;18.17;;;17.10;;
11531;SDS011;5822;51.000;5.874;2023-03-16T00:38:37;18.60;;;17.50;;
11531;SDS011;5822;51.000;5.874;2023-03-16T00:41:05;18.90;;;17.70;;
11531;SDS011;5822;51.000;5.874;2023-03-16T00:43:33;19.40;;;18.20;;
11531;SDS011;5822;51.000;5.874;2023-03-16T00:46:07;18.90;;;17.80;;
11531;SDS011;5822;51.000;5.874;2023-03-16T00:48:34;18.73;;;17.63;;
11531;SDS011;5822;51.000;5.874;2023-03-16T00:51:04;18.40;;;17.30;;
11531;SDS011;5822;51.000;5.874;2023-03-16T00:53:33;18.30;;;17.20;;
11531;SDS011;5822;51.000;5.874;2023-03-16T00:56:00;18.05;;;17.05;;
11531;SDS011;5822;51.000;5.874;2023-03-16T00:58:33;18.70;;;17.60;;
11531;SDS011;5822;51.000;5.874;2023-03-16T01:01:00;19.00;;;17.90;;
11531;SDS011;5822;51.000;5.874;2023-03-16T01:03:30;18.02;;;17.02;;
11531;SDS011;5822;51.000;5.874;2023-03-16T01:05:56;18.27;;;17.17;;
11531;SDS011;5822;51.000;5.874;2023-03-16T01:08:24;19.20;;;18.00;;
11531;SDS011;5822;51.000;5.874;2023-03-16T01:10:52;18.70;;;17.60;;
11531;SDS011;5822;51.000;5.874;2023-03-16T01:13:21;18.58;;;17.48;;
11531;SDS011;5822;51.000;5.874;2023-03-16T01:15:50;18.50;;;17.40;;
11531;SDS011;5822;51.000;5.874;2023-03-16T01:18:16;18.70;;;17.60;;
11531;SDS011;5822;51.000;5.874;2023-03-16T01:20:42;18.50;;;17.40;;
11531;SDS011;5822;51.000;5.874;2023-03-16T01:23:14;19.00;;;17.90;;
11531;SDS011;5822;51.000;5.874;2023-03-16T01:25:44;18.63;;;17.52;;
11531;SDS011;5822;51.000;5.874;2023-03-16T01:28:17;18.80;;;17.70;;
11531;SDS011;5822;51.000;5.874;2023-03-16T01:30:50;18.25;;;17.17;;
11531;SDS011;5822;51.000;5.874;2023-03-16T01:33:21;18.27;;;17.20;;
11531;SDS011;5822;51.000;5.874;2023-03-16T01:38:19;18.38;;;17.38;;
11531;SDS011;5822;51.000;5.874;2023-03-16T01:40:45;18.55;;;17.45;;
11531;SDS011;5822;51.000;5.874;2023-03-16T01:43:15;18.20;;;17.20;;
11531;SDS011;5822;51.000;5.874;2023-03-16T01:48:32;18.10;;;17.10;;
11531;SDS011;5822;51.000;5.874;2023-03-16T01:51:02;18.48;;;17.48;;
11531;SDS011;5822;51.000;5.874;2023-03-16T01:53:50;18.58;;;17.52;;
11531;SDS011;5822;51.000;5.874;2023-03-16T01:56:23;18.43;;;17.43;;
11531;SDS011;5822;51.000;5.874;2023-03-16T01:58:54;18.00;;;17.00;;
11531;SDS011;5822;51.000;5.874;2023-03-16T02:01:23;18.02;;;17.02;;
11531;SDS011;5822;51.000;5.874;2023-03-16T02:03:52;18.20;;;17.20;;
11531;SDS011;5822;51.000;5.874;2023-03-16T02:06:23;18.35;;;17.35;;
11531;SDS011;5822;51.000;5.874;2023-03-16T02:08:49;18.25;;;17.25;;
11531;SDS011;5822;51.000;5.874;2023-03-16T02:11:19;18.17;;;17.17;;
11531;SDS011;5822;51.000;5.874;2023-03-16T02:13:46;18.25;;;17.25;;
11531;SDS011;5822;51.000;5.874;2023-03-16T02:16:13;18.67;;;17.58;;
11531;SDS011;5822;51.000;5.874;2023-03-16T02:18:43;18.20;;;17.20;;
11531;SDS011;5822;51.000;5.874;2023-03-16T02:24:10;18.40;;;17.40;;
11531;SDS011;5822;51.000;5.874;2023-03-16T02:26:39;18.58;;;17.58;;
11531;SDS011;5822;51.000;5.874;2023-03-16T02:32:13;21.23;;;19.93;;
11531;SDS011;5822;51.000;5.874;2023-03-16T02:34:41;23.88;;;22.27;;
11531;SDS011;5822;51.000;5.874;2023-03-16T02:37:07;21.83;;;20.52;;
11531;SDS011;5822;51.000;5.874;2023-03-16T02:39:34;20.35;;;19.15;;
11531;SDS011;5822;51.000;5.874;2023-03-16T02:42:00;19.25;;;18.15;;
11531;SDS011;5822;51.000;5.874;2023-03-16T02:44:28;18.70;;;17.60;;
11531;SDS011;5822;51.000;5.874;2023-03-16T02:47:01;18.30;;;17.20;;
11531;SDS011;5822;51.000;5.874;2023-03-16T02:49:41;18.33;;;17.33;;
11531;SDS011;5822;51.000;5.874;2023-03-16T02:52:09;18.08;;;16.98;;
11531;SDS011;5822;51.000;5.874;2023-03-16T02:54:36;18.45;;;17.45;;
11531;SDS011;5822;51.000;5.874;2023-03-16T02:57:02;17.23;;;16.33;;
11531;SDS011;5822;51.000;5.874;2023-03-16T02:59:29;17.52;;;16.52;;
11531;SDS011;5822;51.000;5.874;2023-03-16T03:01:55;18.00;;;17.00;;
11531;SDS011;5822;51.000;5.874;2023-03-16T03:04:20;17.27;;;16.38;;
11531;SDS011;5822;51.000;5.874;2023-03-16T03:06:48;17.95;;;16.95;;
11531;SDS011;5822;51.000;5.874;2023-03-16T03:09:14;17.80;;;16.80;;
11531;SDS011;5822;51.000;5.874;2023-03-16T03:11:40;18.48;;;17.38;;
11531;SDS011;5822;51.000;5.874;2023-03-16T03:14:05;18.27;;;17.27;;
11531;SDS011;5822;51.000;5.874;2023-03-16T03:16:31;18.17;;;17.17;;
11531;SDS011;5822;51.000;5.874;2023-03-16T03:18:57;18.70;;;17.60;;
11531;SDS011;5822;51.000;5.874;2023-03-16T03:21:23;18.23;;;17.20;;
11531;SDS011;5822;51.000;5.874;2023-03-16T03:23:49;17.80;;;16.80;;
11531;SDS011;5822;51.000;5.874;2023-03-16T03:26:15;17.80;;;16.80;;
11531;SDS011;5822;51.000;5.874;2023-03-16T03:28:41;18.10;;;17.10;;
11531;SDS011;5822;51.000;5.874;2023-03-16T03:31:12;18.05;;;17.05;;
11531;SDS011;5822;51.000;5.874;2023-03-16T03:33:39;17.85;;;16.85;;
11531;SDS011;5822;51.000;5.874;2023-03-16T03:36:05;17.70;;;16.70;;
11531;SDS011;5822;51.000;5.874;2023-03-16T03:38:31;17.80;;;16.80;;
11531;SDS011;5822;51.000;5.874;2023-03-16T03:40:56;18.00;;;17.00;;
11531;SDS011;5822;51.000;5.874;2023-03-16T03:43:23;17.95;;;16.95;;
11531;SDS011;5822;51.000;5.874;2023-03-16T03:45:49;17.92;;;16.92;;
11531;SDS011;5822;51.000;5.874;2023-03-16T03:48:23;18.40;;;17.40;;
11531;SDS011;5822;51.000;5.874;2023-03-16T03:50:48;18.15;;;17.15;;
11531;SDS011;5822;51.000;5.874;2023-03-16T03:53:14;18.10;;;17.10;;
11531;SDS011;5822;51.000;5.874;2023-03-16T03:55:40;18.30;;;17.30;;
11531;SDS011;5822;51.000;5.874;2023-03-16T03:58:05;17.90;;;16.90;;
11531;SDS011;5822;51.000;5.874;2023-03-16T04:00:31;18.13;;;17.13;;
11531;SDS011;5822;51.000;5.874;2023-03-16T04:02:57;17.83;;;16.83;;
11531;SDS011;5822;51.000;5.874;2023-03-16T04:05:23;17.90;;;16.90;;
11531;SDS011;5822;51.000;5.874;2023-03-16T04:07:51;17.63;;;16.63;;
11531;SDS011;5822;51.000;5.874;2023-03-16T04:10:19;18.17;;;17.17;;
11531;SDS011;5822;51.000;5.874;2023-03-16T04:12:45;18.10;;;17.10;;
11531;SDS011;5822;51.000;5.874;2023-03-16T04:15:10;17.90;;;16.90;;
11531;SDS011;5822;51.000;5.874;2023-03-16T04:17:36;18.10;;;17.10;;
11531;SDS011;5822;51.000;5.874;2023-03-16T04:20:02;18.70;;;17.60;;
11531;SDS011;5822;51.000;5.874;2023-03-16T04:22:38;18.60;;;17.60;;
11531;SDS011;5822;51.000;5.874;2023-03-16T04:25:04;18.17;;;17.17;;
11531;SDS011;5822;51.000;5.874;2023-03-16T04:27:29;18.90;;;17.80;;
11531;SDS011;5822;51.000;5.874;2023-03-16T04:30:01;18.60;;;17.50;;
11531;SDS011;5822;51.000;5.874;2023-03-16T04:32:29;18.63;;;17.53;;
11531;SDS011;5822;51.000;5.874;2023-03-16T04:34:55;18.92;;;17.83;;
11531;SDS011;5822;51.000;5.874;2023-03-16T04:37:21;19.43;;;18.33;;
11531;SDS011;5822;51.000;5.874;2023-03-16T04:39:47;18.93;;;17.83;;
11531;SDS011;5822;51.000;5.874;2023-03-16T04:42:12;19.03;;;17.93;;
11531;SDS011;5822;51.000;5.874;2023-03-16T04:44:38;19.33;;;18.13;;
11531;SDS011;5822;51.000;5.874;2023-03-16T04:47:11;19.30;;;18.20;;
11531;SDS011;5822;51.000;5.874;2023-03-16T04:49:37;19.60;;;18.40;;
11531;SDS011;5822;51.000;5.874;2023-03-16T04:52:03;19.42;;;18.30;;
11531;SDS011;5822;51.000;5.874;2023-03-16T04:54:30;19.30;;;18.17;;
11531;SDS011;5822;51.000;5.874;2023-03-16T04:56:57;19.50;;;18.40;;
11531;SDS011;5822;51.000;5.874;2023-03-16T04:59:23;19.60;;;18.40;;
11531;SDS011;5822;51.000;5.874;2023-03-16T05:01:49;19.90;;;18.70;;
11531;SDS011;5822;51.000;5.874;2023-03-16T05:04:14;19.33;;;18.23;;
11531;SDS011;5822;51.000;5.874;2023-03-16T05:06:40;19.88;;;18.67;;
11531;SDS011;5822;51.000;5.874;2023-03-16T05:09:06;19.73;;;18.53;;
11531;SDS011;5822;51.000;5.874;2023-03-16T05:11:33;19.38;;;18.17;;
11531;SDS011;5822;51.000;5.874;2023-03-16T05:13:59;19.17;;;18.00;;
11531;SDS011;5822;51.000;5.874;2023-03-16T05:16:26;19.23;;;18.02;;
11531;SDS011;5822;51.000;5.874;2023-03-16T05:18:52;19.10;;;18.00;;
11531;SDS011;5822;51.000;5.874;2023-03-16T05:21:18;19.83;;;18.63;;
11531;SDS011;5822;51.000;5.874;2023-03-16T05:23:44;19.90;;;18.70;;
11531;SDS011;5822;51.000;5.874;2023-03-16T05:26:10;19.80;;;18.60;;
11531;SDS011;5822;51.000;5.874;2023-03-16T05:28:37;19.25;;;18.15;;
11531;SDS011;5822;51.000;5.874;2023-03-16T05:31:03;19.48;;;18.27;;
11531;SDS011;5822;51.000;5.874;2023-03-16T05:33:29;19.80;;;18.60;;
11531;SDS011;5822;51.000;5.874;2023-03-16T05:35:54;19.20;;;18.10;;
11531;SDS011;5822;51.000;5.874;2023-03-16T05:38:22;18.83;;;17.73;;
11531;SDS011;5822;51.000;5.874;2023-03-16T05:40:48;19.10;;;18.00;;
11531;SDS011;5822;51.000;5.874;2023-03-16T05:43:17;18.80;;;17.70;;
11531;SDS011;5822;51.000;5.874;2023-03-16T05:45:44;19.00;;;17.90;;
11531;SDS011;5822;51.000;5.874;2023-03-16T05:48:10;19.30;;;18.13;;
11531;SDS011;5822;51.000;5.874;2023-03-16T05:50:35;19.57;;;18.37;;
11531;SDS011;5822;51.000;5.874;2023-03-16T05:53:01;19.40;;;18.30;;
11531;SDS011;5822;51.000;5.874;2023-03-16T05:55:27;18.90;;;17.80;;
11531;SDS011;5822;51.000;5.874;2023-03-16T05:57:54;19.10;;;18.00;;
11531;SDS011;5822;51.000;5.874;2023-03-16T06:00:20;18.67;;;17.58;;
11531;SDS011;5822;51.000;5.874;2023-03-16T06:02:47;19.20;;;18.00;;
11531;SDS011;5822;51.000;5.874;2023-03-16T06:05:15;19.20;;;18.00;;
11531;SDS011;5822;51.000;5.874;2023-03-16T06:07:41;18.77;;;17.67;;
11531;SDS011;5822;51.000;5.874;2023-03-16T06:10:07;19.58;;;18.38;;
11531;SDS011;5822;51.000;5.874;2023-03-16T06:12:35;19.38;;;18.17;;
11531;SDS011;5822;51.000;5.874;2023-03-16T06:15:01;19.80;;;18.60;;
11531;SDS011;5822;51.000;5.874;2023-03-16T06:17:28;19.77;;;18.60;;
11531;SDS011;5822;51.000;5.874;2023-03-16T06:19:53;19.60;;;18.40;;
11531;SDS011;5822;51.000;5.874;2023-03-16T06:22:19;19.05;;;17.85;;
11531;SDS011;5822;51.000;5.874;2023-03-16T06:24:45;19.17;;;17.98;;
11531;SDS011;5822;51.000;5.874;2023-03-16T06:27:10;19.08;;;17.88;;
11531;SDS011;5822;51.000;5.874;2023-03-16T06:29:36;18.58;;;17.48;;
11531;SDS011;5822;51.000;5.874;2023-03-16T06:32:02;18.83;;;17.73;;
11531;SDS011;5822;51.000;5.874;2023-03-16T06:34:28;18.83;;;17.70;;
11531;SDS011;5822;51.000;5.874;2023-03-16T06:36:53;19.83;;;18.63;;
11531;SDS011;5822;51.000;5.874;2023-03-16T06:39:19;18.80;;;17.70;;
11531;SDS011;5822;51.000;5.874;2023-03-16T06:41:45;18.88;;;17.77;;
11531;SDS011;5822;51.000;5.874;2023-03-16T06:44:10;19.00;;;17.80;;
11531;SDS011;5822;51.000;5.874;2023-03-16T06:46:36;18.48;;;17.38;;
11531;SDS011;5822;51.000;5.874;2023-03-16T06:49:02;18.50;;;17.40;;
11531;SDS011;5822;51.000;5.874;2023-03-16T06:51:28;18.23;;;17.13;;
11531;SDS011;5822;51.000;5.874;2023-03-16T06:53:55;18.73;;;17.63;;
11531;SDS011;5822;51.000;5.874;2023-03-16T06:56:21;18.80;;;17.70;;
11531;SDS011;5822;51.000;5.874;2023-03-16T06:58:46;18.48;;;17.38;;
11531;SDS011;5822;51.000;5.874;2023-03-16T07:01:12;18.65;;;17.55;;
11531;SDS011;5822;51.000;5.874;2023-03-16T07:03:37;18.60;;;17.50;;
11531;SDS011;5822;51.000;5.874;2023-03-16T07:06:03;18.15;;;17.15;;
11531;SDS011;5822;51.000;5.874;2023-03-16T07:08:30;19.30;;;18.27;;
11531;SDS011;5822;51.000;5.874;2023-03-16T07:10:56;21.33;;;20.20;;
11531;SDS011;5822;51.000;5.874;2023-03-16T07:13:21;22.13;;;21.03;;
11531;SDS011;5822;51.000;5.874;2023-03-16T07:15:50;24.87;;;23.57;;
11531;SDS011;5822;51.000;5.874;2023-03-16T07:18:17;27.10;;;25.80;;
11531;SDS011;5822;51.000;5.874;2023-03-16T07:20:43;27.90;;;26.50;;
11531;SDS011;5822;51.000;5.874;2023-03-16T07:23:08;30.35;;;28.85;;
11531;SDS011;5822;51.000;5.874;2023-03-16T07:25:35;34.30;;;32.70;;
11531;SDS011;5822;51.000;5.874;2023-03-16T07:28:01;33.08;;;31.48;;
11531;SDS011;5822;51.000;5.874;2023-03-16T07:30:27;33.45;;;31.95;;
11531;SDS011;5822;51.000;5.874;2023-03-16T07:32:53;31.90;;;30.40;;
11531;SDS011;5822;51.000;5.874;2023-03-16T07:35:18;30.23;;;28.83;;
11531;SDS011;5822;51.000;5.874;2023-03-16T07:37:45;30.98;;;29.55;;
11531;SDS011;5822;51.000;5.874;2023-03-16T07:40:11;32.33;;;30.73;;
11531;SDS011;5822;51.000;5.874;2023-03-16T07:42:38;28.40;;;27.00;;
11531;SDS011;5822;51.000;5.874;2023-03-16T07:45:04;28.27;;;26.97;;
11531;SDS011;5822;51.000;5.874;2023-03-16T07:47:31;27.23;;;25.92;;
11531;SDS011;5822;51.000;5.874;2023-03-16T07:49:57;28.25;;;26.95;;
11531;SDS011;5822;51.000;5.874;2023-03-16T07:52:23;26.13;;;24.92;;
11531;SDS011;5822;51.000;5.874;2023-03-16T07:54:49;30.73;;;29.33;;
11531;SDS011;5822;51.000;5.874;2023-03-16T07:57:15;28.00;;;26.70;;
11531;SDS011;5822;51.000;5.874;2023-03-16T07:59:41;20.13;;;19.13;;
11531;SDS011;5822;51.000;5.874;2023-03-16T08:02:13;16.97;;;16.00;;
11531;SDS011;5822;51.000;5.874;2023-03-16T08:04:41;17.67;;;16.70;;
11531;SDS011;5822;51.000;5.874;2023-03-16T08:07:11;17.80;;;16.73;;
11531;SDS011;5822;51.000;5.874;2023-03-16T08:09:38;21.38;;;20.27;;
11531;SDS011;5822;51.000;5.874;2023-03-16T08:12:06;32.65;;;31.25;;
11531;SDS011;5822;51.000;5.874;2023-03-16T08:14:32;32.92;;;31.42;;
11531;SDS011;5822;51.000;5.874;2023-03-16T08:16:59;26.38;;;25.17;;
11531;SDS011;5822;51.000;5.874;2023-03-16T08:19:25;26.83;;;25.60;;
11531;SDS011;5822;51.000;5.874;2023-03-16T08:21:51;25.90;;;24.70;;
11531;SDS011;5822;51.000;5.874;2023-03-16T08:24:17;26.33;;;25.13;;
11531;SDS011;5822;51.000;5.874;2023-03-16T08:26:43;24.45;;;23.33;;
11531;SDS011;5822;51.000;5.874;2023-03-16T08:29:09;22.65;;;21.55;;
11531;SDS011;5822;51.000;5.874;2023-03-16T08:31:34;24.40;;;23.20;;
11531;SDS011;5822;51.000;5.874;2023-03-16T08:34:00;21.10;;;20.10;;
11531;SDS011;5822;51.000;5.874;2023-03-16T08:36:27;21.75;;;20.65;;
11531;SDS011;5822;51.000;5.874;2023-03-16T08:38:54;20.63;;;19.63;;
11531;SDS011;5822;51.000;5.874;2023-03-16T08:41:20;20.75;;;19.55;;
11531;SDS011;5822;51.000;5.874;2023-03-16T08:43:46;22.30;;;21.20;;
11531;SDS011;5822;51.000;5.874;2023-03-16T08:46:12;20.90;;;19.90;;
11531;SDS011;5822;51.000;5.874;2023-03-16T08:48:40;18.70;;;17.70;;
11531;SDS011;5822;51.000;5.874;2023-03-16T08:51:07;18.57;;;17.60;;
11531;SDS011;5822;51.000;5.874;2023-03-16T08:53:34;19.45;;;18.45;;
11531;SDS011;5822;51.000;5.874;2023-03-16T08:56:03;19.10;;;18.10;;
11531;SDS011;5822;51.000;5.874;2023-03-16T08:58:31;19.80;;;18.80;;
11531;SDS011;5822;51.000;5.874;2023-03-16T09:00:58;18.40;;;17.50;;
11531;SDS011;5822;51.000;5.874;2023-03-16T09:03:25;20.10;;;19.05;;
11531;SDS011;5822;51.000;5.874;2023-03-16T09:05:51;18.98;;;17.98;;
11531;SDS011;5822;51.000;5.874;2023-03-16T09:08:17;18.90;;;17.90;;
11531;SDS011;5822;51.000;5.874;2023-03-16T09:10:43;17.83;;;16.92;;
11531;SDS011;5822;51.000;5.874;2023-03-16T09:13:09;22.00;;;20.90;;
11531;SDS011;5822;51.000;5.874;2023-03-16T09:15:35;20.95;;;19.85;;
11531;SDS011;5822;51.000;5.874;2023-03-16T09:18:02;20.83;;;19.80;;
11531;SDS011;5822;51.000;5.874;2023-03-16T09:20:29;18.42;;;17.42;;
11531;SDS011;5822;51.000;5.874;2023-03-16T09:22:56;18.17;;;17.17;;
11531;SDS011;5822;51.000;5.874;2023-03-16T09:25:23;17.70;;;16.70;;
11531;SDS011;5822;51.000;5.874;2023-03-16T09:27:49;16.80;;;15.90;;
11531;SDS011;5822;51.000;5.874;2023-03-16T09:30:15;17.70;;;16.70;;
11531;SDS011;5822;51.000;5.874;2023-03-16T09:32:41;18.92;;;17.92;;
11531;SDS011;5822;51.000;5.874;2023-03-16T09:35:07;25.80;;;24.50;;
11531;SDS011;5822;51.000;5.874;2023-03-16T09:37:33;23.85;;;22.65;;
11531;SDS011;5822;51.000;5.874;2023-03-16T09:40:00;22.48;;;21.27;;
11531;SDS011;5822;51.000;5.874;2023-03-16T09:42:43;21.50;;;20.40;;
11531;SDS011;5822;51.000;5.874;2023-03-16T09:45:18;21.33;;;20.23;;
11531;SDS011;5822;51.000;5.874;2023-03-16T09:47:55;20.07;;;19.07;;
11531;SDS011;5822;51.000;5.874;2023-03-16T09:50:28;20.15;;;19.05;;
11531;SDS011;5822;51.000;5.874;2023-03-16T09:55:52;20.80;;;19.70;;
11531;SDS011;5822;51.000;5.874;2023-03-16T09:58:22;21.50;;;20.40;;
11531;SDS011;5822;51.000;5.874;2023-03-16T10:06:04;19.75;;;18.75;;
11531;SDS011;5822;51.000;5.874;2023-03-16T10:08:38;18.58;;;17.58;;
11531;SDS011;5822;51.000;5.874;2023-03-16T10:16:47;18.25;;;17.20;;
11531;SDS011;5822;51.000;5.874;2023-03-16T10:19:17;18.40;;;17.40;;
11531;SDS011;5822;51.000;5.874;2023-03-16T10:21:47;17.70;;;16.77;;
11531;SDS011;5822;51.000;5.874;2023-03-16T10:27:05;17.15;;;16.25;;
11531;SDS011;5822;51.000;5.874;2023-03-16T10:29:46;17.30;;;16.38;;
11531;SDS011;5822;51.000;5.874;2023-03-16T10:32:14;16.73;;;15.83;;
11531;SDS011;5822;51.000;5.874;2023-03-16T10:34:46;16.77;;;15.85;;
11531;SDS011;5822;51.000;5.874;2023-03-16T10:37:22;17.30;;;16.30;;
11531;SDS011;5822;51.000;5.874;2023-03-16T10:39:53;17.43;;;16.43;;
11531;SDS011;5822;51.000;5.874;2023-03-16T10:42:20;16.92;;;16.02;;
11531;SDS011;5822;51.000;5.874;2023-03-16T10:44:55;16.77;;;15.87;;
11531;SDS011;5822;51.000;5.874;2023-03-16T10:47:23;17.10;;;16.10;;
11531;SDS011;5822;51.000;5.874;2023-03-16T10:49:52;17.05;;;16.15;;
11531;SDS011;5822;51.000;5.874;2023-03-16T10:52:26;17.45;;;16.45;;
11531;SDS011;5822;51.000;5.874;2023-03-16T10:55:06;16.58;;;15.68;;
11531;SDS011;5822;51.000;5.874;2023-03-16T10:57:56;16.52;;;15.63;;
11531;SDS011;5822;51.000;5.874;2023-03-16T11:00:26;16.80;;;15.80;;
11531;SDS011;5822;51.000;5.874;2023-03-16T11:02:58;16.50;;;15.60;;
11531;SDS011;5822;51.000;5.874;2023-03-16T11:05:29;17.15;;;16.15;;
11531;SDS011;5822;51.000;5.874;2023-03-16T11:10:29;17.25;;;16.30;;
11531;SDS011;5822;51.000;5.874;2023-03-16T11:15:32;16.70;;;15.80;;
11531;SDS011;5822;51.000;5.874;2023-03-16T11:18:01;16.70;;;15.80;;
11531;SDS011;5822;51.000;5.874;2023-03-16T11:20:27;16.40;;;15.50;;
11531;SDS011;5822;51.000;5.874;2023-03-16T11:22:57;16.25;;;15.35;;
11531;SDS011;5822;51.000;5.874;2023-03-16T11:28:14;16.80;;;15.80;;
11531;SDS011;5822;51.000;5.874;2023-03-16T11:31:05;17.05;;;16.15;;
11531;SDS011;5822;51.000;5.874;2023-03-16T11:33:43;20.05;;;19.02;;
11531;SDS011;5822;51.000;5.874;2023-03-16T11:41:26;18.23;;;17.23;;
11531;SDS011;5822;51.000;5.874;2023-03-16T11:44:07;19.05;;;17.95;;
11531;SDS011;5822;51.000;5.874;2023-03-16T12:01:07;16.75;;;15.85;;
11531;SDS011;5822;51.000;5.874;2023-03-16T12:03:53;17.10;;;16.10;;
11531;SDS011;5822;51.000;5.874;2023-03-16T12:15:20;17.30;;;16.40;;
11531;SDS011;5822;51.000;5.874;2023-03-16T12:17:59;17.47;;;16.47;;
11531;SDS011;5822;51.000;5.874;2023-03-16T12:20:39;16.90;;;16.00;;
11531;SDS011;5822;51.000;5.874;2023-03-16T12:23:19;16.90;;;15.90;;
11531;SDS011;5822;51.000;5.874;2023-03-16T12:25:50;17.10;;;16.10;;
11531;SDS011;5822;51.000;5.874;2023-03-16T12:28:21;16.98;;;16.08;;
11531;SDS011;5822;51.000;5.874;2023-03-16T12:30:52;17.15;;;16.15;;
11531;SDS011;5822;51.000;5.874;2023-03-16T12:44:47;17.23;;;16.30;;
11531;SDS011;5822;51.000;5.874;2023-03-16T12:49:49;17.60;;;16.60;;
11531;SDS011;5822;51.000;5.874;2023-03-16T12:52:16;17.77;;;16.77;;
11531;SDS011;5822;51.000;5.874;2023-03-16T12:54:48;17.40;;;16.50;;
11531;SDS011;5822;51.000;5.874;2023-03-16T12:57:16;17.17;;;16.27;;
11531;SDS011;5822;51.000;5.874;2023-03-16T12:59:43;17.60;;;16.60;;
11531;SDS011;5822;51.000;5.874;2023-03-16T13:04:42;17.77;;;16.77;;
11531;SDS011;5822;51.000;5.874;2023-03-16T13:07:17;18.10;;;17.00;;
11531;SDS011;5822;51.000;5.874;2023-03-16T13:10:08;17.60;;;16.60;;
11531;SDS011;5822;51.000;5.874;2023-03-16T13:12:35;17.90;;;16.90;;
11531;SDS011;5822;51.000;5.874;2023-03-16T13:15:47;17.70;;;16.70;;
11531;SDS011;5822;51.000;5.874;2023-03-16T13:18:33;17.23;;;16.33;;
11531;SDS011;5822;51.000;5.874;2023-03-16T13:20:51;18.20;;;17.20;;
11531;SDS011;5822;51.000;5.874;2023-03-16T13:25:56;17.88;;;16.88;;
11531;SDS011;5822;51.000;5.874;2023-03-16T13:29:05;17.60;;;16.60;;
11531;SDS011;5822;51.000;5.874;2023-03-16T13:31:57;17.90;;;16.90;;
11531;SDS011;5822;51.000;5.874;2023-03-16T13:34:31;18.40;;;17.40;;
11531;SDS011;5822;51.000;5.874;2023-03-16T13:37:01;17.95;;;16.90;;
11531;SDS011;5822;51.000;5.874;2023-03-16T13:39:28;17.40;;;16.48;;
11531;SDS011;5822;51.000;5.874;2023-03-16T13:44:29;17.27;;;16.38;;
11531;SDS011;5822;51.000;5.874;2023-03-16T13:46:55;17.70;;;16.80;;
11531;SDS011;5822;51.000;5.874;2023-03-16T13:49:22;18.33;;;17.33;;
11531;SDS011;5822;51.000;5.874;2023-03-16T13:51:48;17.80;;;16.90;;
11531;SDS011;5822;51.000;5.874;2023-03-16T13:56:57;17.60;;;16.60;;
11531;SDS011;5822;51.000;5.874;2023-03-16T13:59:26;17.63;;;16.73;;
11531;SDS011;5822;51.000;5.874;2023-03-16T14:01:56;17.90;;;16.90;;
11531;SDS011;5822;51.000;5.874;2023-03-16T14:04:25;17.20;;;16.30;;
11531;SDS011;5822;51.000;5.874;2023-03-16T14:07:00;17.13;;;16.13;;
11531;SDS011;5822;51.000;5.874;2023-03-16T14:09:28;16.80;;;15.90;;
11531;SDS011;5822;51.000;5.874;2023-03-16T14:11:57;16.30;;;15.50;;
11531;SDS011;5822;51.000;5.874;2023-03-16T14:15:09;16.80;;;15.90;;
11531;SDS011;5822;51.000;5.874;2023-03-16T14:17:18;16.42;;;15.52;;
11531;SDS011;5822;51.000;5.874;2023-03-16T14:19:49;17.45;;;16.45;;
11531;SDS011;5822;51.000;5.874;2023-03-16T14:22:23;17.08;;;16.17;;
11531;SDS011;5822;51.000;5.874;2023-03-16T14:24:55;16.98;;;16.08;;
11531;SDS011;5822;51.000;5.874;2023-03-16T14:27:28;16.70;;;15.80;;
11531;SDS011;5822;51.000;5.874;2023-03-16T14:30:18;16.52;;;15.63;;
11531;SDS011;5822;51.000;5.874;2023-03-16T14:33:22;17.40;;;16.50;;
11531;SDS011;5822;51.000;5.874;2023-03-16T14:35:54;16.50;;;15.60;;
11531;SDS011;5822;51.000;5.874;2023-03-16T14:40:56;16.60;;;15.70;;
11531;SDS011;5822;51.000;5.874;2023-03-16T14:43:29;16.10;;;15.30;;
11531;SDS011;5822;51.000;5.874;2023-03-16T14:45:57;16.63;;;15.73;;
11531;SDS011;5822;51.000;5.874;2023-03-16T14:48:24;15.70;;;14.80;;
11531;SDS011;5822;51.000;5.874;2023-03-16T14:50:54;15.70;;;14.90;;
11531;SDS011;5822;51.000;5.874;2023-03-16T14:53:22;15.52;;;14.73;;
11531;SDS011;5822;51.000;5.874;2023-03-16T14:55:52;15.60;;;14.80;;
11531;SDS011;5822;51.000;5.874;2023-03-16T14:58:21;15.68;;;14.88;;
11531;SDS011;5822;51.000;5.874;2023-03-16T15:00:47;16.37;;;15.47;;
11531;SDS011;5822;51.000;5.874;2023-03-16T15:03:16;17.15;;;16.25;;
11531;SDS011;5822;51.000;5.874;2023-03-16T15:05:45;17.08;;;16.17;;
11531;SDS011;5822;51.000;5.874;2023-03-16T15:08:15;16.85;;;15.95;;
11531;SDS011;5822;51.000;5.874;2023-03-16T15:10:53;16.50;;;15.60;;
11531;SDS011;5822;51.000;5.874;2023-03-16T15:13:20;16.20;;;15.30;;
11531;SDS011;5822;51.000;5.874;2023-03-16T15:16:00;15.68;;;14.88;;
11531;SDS011;5822;51.000;5.874;2023-03-16T15:18:28;15.60;;;14.70;;
11531;SDS011;5822;51.000;5.874;2023-03-16T15:20:54;15.97;;;15.07;;
11531;SDS011;5822;51.000;5.874;2023-03-16T15:23:20;16.17;;;15.27;;
11531;SDS011;5822;51.000;5.874;2023-03-16T15:25:46;15.85;;;15.00;;
11531;SDS011;5822;51.000;5.874;2023-03-16T15:28:14;16.60;;;15.70;;
11531;SDS011;5822;51.000;5.874;2023-03-16T15:30:46;15.90;;;15.10;;
11531;SDS011;5822;51.000;5.874;2023-03-16T15:33:13;15.70;;;14.90;;
11531;SDS011;5822;51.000;5.874;2023-03-16T15:35:40;15.80;;;14.90;;
11531;SDS011;5822;51.000;5.874;2023-03-16T15:38:13;15.70;;;14.90;;
11531;SDS011;5822;51.000;5.874;2023-03-16T15:40:42;15.60;;;14.80;;
11531;SDS011;5822;51.000;5.874;2023-03-16T15:43:13;15.50;;;14.70;;
11531;SDS011;5822;51.000;5.874;2023-03-16T15:45:41;15.52;;;14.73;;
11531;SDS011;5822;51.000;5.874;2023-03-16T15:48:07;15.80;;;15.00;;
11531;SDS011;5822;51.000;5.874;2023-03-16T15:50:33;16.00;;;15.10;;
11531;SDS011;5822;51.000;5.874;2023-03-16T15:53:01;15.60;;;14.80;;
11531;SDS011;5822;51.000;5.874;2023-03-16T15:55:38;16.35;;;15.48;;
11531;SDS011;5822;51.000;5.874;2023-03-16T15:58:21;16.10;;;15.30;;
11531;SDS011;5822;51.000;5.874;2023-03-16T16:00:49;15.85;;;15.05;;
11531;SDS011;5822;51.000;5.874;2023-03-16T16:03:18;15.82;;;15.02;;
11531;SDS011;5822;51.000;5.874;2023-03-16T16:05:45;15.85;;;15.05;;
11531;SDS011;5822;51.000;5.874;2023-03-16T16:08:10;16.08;;;15.18;;
11531;SDS011;5822;51.000;5.874;2023-03-16T16:10:36;15.90;;;15.10;;
11531;SDS011;5822;51.000;5.874;2023-03-16T16:13:03;15.80;;;15.00;;
11531;SDS011;5822;51.000;5.874;2023-03-16T16:15:31;15.80;;;15.00;;